Time;durP1;ratioP1;P1;durP2;ratioP2;P2;SDS_P1;SDS_P2;PMS_P1;PMS_P2;Temp;Humidity;BMP_temperature;BMP_pressure;BME280_temperature;BME280_humidity;BME280_pressure;Samples;Min_cycle;Max_cycle;Signal;HPM_P1;HPM_P2
2021/09/21 00:00:33;;;;;;;8.73;5.32;;;13.10;99.50;;;;;;6300456;22;20000;-78
2021/09/21 00:02:59;;;;;;;8.20;5.57;;;13.10;99.50;;;;;;6301562;22;20026;-80
2021/09/21 00:05:24;;;;;;;7.85;5.95;;;13.10;99.40;;;;;;6300895;22;20318;-78
2021/09/21 00:07:50;;;;;;;11.90;5.88;;;13.10;99.30;;;;;;6301256;22;20038;-79
2021/09/21 00:10:16;;;;;;;11.00;5.97;;;13.10;99.00;;;;;;6300866;22;20003;-78
2021/09/21 00:12:42;;;;;;;8.07;5.38;;;13.10;99.00;;;;;;6300047;22;20007;-80
2021/09/21 00:15:10;;;;;;;8.68;5.47;;;13.10;99.10;;;;;;6300399;22;20042;-78
2021/09/21 00:17:36;;;;;;;8.20;5.93;;;13.10;99.00;;;;;;6300151;22;20003;-78
2021/09/21 00:20:03;;;;;;;8.23;5.32;;;13.10;99.00;;;;;;6301283;22;20011;-78
2021/09/21 00:22:28;;;;;;;10.95;5.50;;;13.10;98.90;;;;;;6302474;22;19995;-78
2021/09/21 00:24:55;;;;;;;9.38;6.03;;;13.10;98.90;;;;;;6302114;22;20078;-79
2021/09/21 00:27:20;;;;;;;8.48;5.82;;;13.10;98.80;;;;;;6303408;22;20019;-79
2021/09/21 00:29:46;;;;;;;6.72;5.28;;;13.10;98.30;;;;;;6274945;22;20116;-78
2021/09/21 00:32:25;;;;;;;8.77;5.43;;;13.10;98.20;;;;;;6302936;22;20307;-78
2021/09/21 00:34:51;;;;;;;8.20;5.75;;;13.10;98.20;;;;;;6303843;22;20025;-80
2021/09/21 00:37:18;;;;;;;7.45;5.63;;;13.10;98.40;;;;;;6303227;22;20472;-79
2021/09/21 00:39:46;;;;;;;6.47;4.93;;;13.10;98.50;;;;;;6302723;22;19995;-80
2021/09/21 00:42:13;;;;;;;9.07;6.35;;;13.10;98.50;;;;;;6302383;22;19999;-78
2021/09/21 00:44:40;;;;;;;7.50;5.85;;;13.10;98.40;;;;;;6275338;22;20489;-79
2021/09/21 00:47:08;;;;;;;9.55;6.03;;;13.10;98.30;;;;;;6302419;22;20007;-80
2021/09/21 00:49:33;;;;;;;8.00;5.70;;;13.10;97.90;;;;;;6302062;22;19992;-79
2021/09/21 00:52:00;;;;;;;5.93;5.15;;;13.20;97.80;;;;;;6303270;22;20303;-78
2021/09/21 00:54:26;;;;;;;7.10;5.60;;;13.20;97.50;;;;;;6303080;22;19999;-78
2021/09/21 00:56:53;;;;;;;9.93;5.30;;;13.20;97.40;;;;;;6302047;22;19999;-78
2021/09/21 00:59:18;;;;;;;7.60;5.22;;;13.20;97.40;;;;;;6301823;22;20003;-78
2021/09/21 01:01:44;;;;;;;6.18;5.30;;;13.10;97.20;;;;;;6302900;22;20125;-78
2021/09/21 01:04:10;;;;;;;8.18;5.80;;;13.10;97.30;;;;;;6303029;22;20325;-79
2021/09/21 01:06:35;;;;;;;9.90;5.53;;;13.10;97.70;;;;;;6276394;22;20010;-80
2021/09/21 01:09:01;;;;;;;8.95;5.22;;;13.10;97.60;;;;;;6302543;22;20039;-80
2021/09/21 01:11:26;;;;;;;8.73;5.55;;;13.10;97.70;;;;;;6303173;22;20011;-78
2021/09/21 01:13:52;;;;;;;7.50;5.57;;;13.10;97.60;;;;;;6304693;22;20008;-78
2021/09/21 01:16:20;;;;;;;7.55;5.30;;;13.10;97.40;;;;;;6302696;22;20007;-80
2021/09/21 01:18:47;;;;;;;7.95;5.30;;;13.10;97.30;;;;;;6273971;22;20831;-81
2021/09/21 01:21:13;;;;;;;6.88;5.15;;;13.10;97.30;;;;;;6302396;22;20071;-79
2021/09/21 01:23:50;;;;;;;6.53;4.80;;;13.10;97.40;;;;;;6303398;22;19999;-80
2021/09/21 01:26:17;;;;;;;7.45;5.43;;;13.10;97.60;;;;;;6302714;22;20019;-80
2021/09/21 01:28:43;;;;;;;7.82;5.38;;;13.00;97.70;;;;;;6274109;22;20007;-80
2021/09/21 01:31:09;;;;;;;8.55;6.43;;;13.00;97.90;;;;;;6275504;22;20013;-77
2021/09/21 01:33:35;;;;;;;8.50;5.53;;;13.00;98.00;;;;;;6302183;22;20026;-79
2021/09/21 01:36:00;;;;;;;7.90;5.63;;;13.00;98.10;;;;;;6302305;22;20069;-79
2021/09/21 01:38:26;;;;;;;6.88;5.68;;;13.00;98.20;;;;;;6302833;22;19999;-79
2021/09/21 01:40:52;;;;;;;6.50;5.53;;;13.00;98.20;;;;;;6302436;22;20052;-78
2021/09/21 01:43:17;;;;;;;6.20;4.70;;;13.00;97.90;;;;;;6299499;22;20569;-78
2021/09/21 01:45:43;;;;;;;6.72;4.93;;;13.00;97.80;;;;;;6303126;22;20018;-79
2021/09/21 01:48:08;;;;;;;7.80;5.55;;;13.00;97.80;;;;;;6299762;22;20003;-78
2021/09/21 01:50:40;;;;;;;7.85;5.43;;;13.00;97.90;;;;;;6302353;22;19999;-78
2021/09/21 02:00:58;;;;;;;10.25;5.70;;;12.90;98.10;;;;;;6298096;22;20057;-79
2021/09/21 02:03:24;;;;;;;8.50;5.85;;;12.90;98.20;;;;;;6298210;22;20000;-78
2021/09/21 02:05:49;;;;;;;6.90;5.03;;;12.90;98.00;;;;;;6299172;22;20011;-79
2021/09/21 02:08:15;;;;;;;7.03;5.32;;;12.80;98.00;;;;;;6273419;22;20035;-78
2021/09/21 02:10:41;;;;;;;8.73;5.18;;;12.80;98.20;;;;;;6302210;22;20018;-79
2021/09/21 02:13:06;;;;;;;7.28;5.72;;;12.80;98.20;;;;;;6301027;22;19999;-79
2021/09/21 02:15:32;;;;;;;7.22;5.18;;;12.80;98.20;;;;;;6301936;22;19999;-79
2021/09/21 02:17:59;;;;;;;9.23;5.50;;;12.80;98.30;;;;;;6272402;22;20461;-78
2021/09/21 02:20:25;;;;;;;6.68;5.22;;;12.80;98.40;;;;;;6274652;22;20071;-79
2021/09/21 02:22:51;;;;;;;7.50;4.45;;;12.80;98.50;;;;;;6298780;22;19999;-79
2021/09/21 02:25:17;;;;;;;8.00;5.93;;;12.70;98.50;;;;;;6300166;22;20094;-78
2021/09/21 02:27:42;;;;;;;8.55;5.82;;;12.80;98.60;;;;;;6298893;22;20441;-78
2021/09/21 02:30:08;;;;;;;6.82;5.13;;;12.80;98.50;;;;;;6300430;22;20076;-79
2021/09/21 02:32:34;;;;;;;6.82;5.65;;;12.70;98.50;;;;;;6299938;22;19999;-79
2021/09/21 02:34:59;;;;;;;8.13;5.53;;;12.70;98.50;;;;;;6298247;22;19995;-78
2021/09/21 02:37:25;;;;;;;9.45;5.88;;;12.70;98.60;;;;;;6301059;22;20019;-80
2021/09/21 02:39:50;;;;;;;8.63;5.40;;;12.70;98.60;;;;;;6273301;22;20011;-80
2021/09/21 02:42:16;;;;;;;5.63;4.90;;;12.70;98.50;;;;;;6299953;22;20007;-79
2021/09/21 02:44:41;;;;;;;8.18;5.38;;;12.80;98.50;;;;;;6298878;22;20027;-81
2021/09/21 02:47:07;;;;;;;7.78;6.38;;;12.70;98.50;;;;;;6297486;22;20400;-79
2021/09/21 02:49:33;;;;;;;7.50;5.57;;;12.80;98.50;;;;;;6300266;22;20004;-80
2021/09/21 02:51:59;;;;;;;9.13;5.47;;;12.80;98.40;;;;;;6300211;22;20078;-79
2021/09/21 02:54:24;;;;;;;7.25;5.10;;;12.80;98.30;;;;;;6299737;22;20198;-79
2021/09/21 02:56:50;;;;;;;10.07;5.70;;;12.80;98.10;;;;;;6300095;22;20011;-79
2021/09/21 02:59:15;;;;;;;6.82;5.03;;;12.80;98.00;;;;;;6271092;22;20082;-78
2021/09/21 03:01:41;;;;;;;6.30;5.07;;;12.80;98.00;;;;;;6298375;22;20090;-80
2021/09/21 03:04:14;;;;;;;7.60;4.93;;;12.80;97.90;;;;;;6299210;22;20002;-79
2021/09/21 03:06:45;;;;;;;8.55;5.40;;;12.80;98.10;;;;;;6299553;22;20419;-79
2021/09/21 03:09:20;;;;;;;6.20;5.35;;;12.80;98.20;;;;;;6301084;22;19999;-80
2021/09/21 03:11:50;;;;;;;7.60;5.28;;;12.80;98.30;;;;;;6300680;22;20322;-79
2021/09/21 03:19:31;;;;;;;7.10;4.90;;;12.80;98.00;;;;;;6307615;22;20010;-79
2021/09/21 03:21:57;;;;;;;8.50;5.65;;;12.80;98.00;;;;;;6299235;22;20018;-80
2021/09/21 03:24:22;;;;;;;8.23;4.80;;;12.80;98.00;;;;;;6299346;22;20037;-78
2021/09/21 03:26:48;;;;;;;5.45;4.78;;;12.80;97.90;;;;;;6298094;22;20079;-80
2021/09/21 03:29:13;;;;;;;7.03;5.20;;;12.80;97.90;;;;;;6297383;22;19995;-79
2021/09/21 03:31:39;;;;;;;7.10;4.82;;;12.80;97.90;;;;;;6271008;22;20010;-79
2021/09/21 03:34:04;;;;;;;5.40;4.70;;;12.80;98.00;;;;;;6296407;22;20074;-79
2021/09/21 03:36:30;;;;;;;10.90;5.10;;;12.80;97.70;;;;;;6300306;22;20011;-77
2021/09/21 03:38:56;;;;;;;8.77;5.35;;;12.80;97.00;;;;;;6300742;22;20003;-79
2021/09/21 03:41:21;;;;;;;6.75;5.10;;;12.80;97.10;;;;;;6301256;22;19996;-79
2021/09/21 03:43:47;;;;;;;6.38;5.05;;;12.80;97.20;;;;;;6297973;22;20039;-77
2021/09/21 03:46:13;;;;;;;5.82;4.68;;;12.80;97.10;;;;;;6297748;22;20015;-79
2021/09/21 03:48:39;;;;;;;7.65;5.13;;;12.80;97.00;;;;;;6298913;22;20286;-80
2021/09/21 03:51:05;;;;;;;6.20;4.93;;;12.80;97.00;;;;;;6270806;22;20014;-79
2021/09/21 03:53:30;;;;;;;6.40;4.78;;;12.80;96.80;;;;;;6298308;22;20010;-79
2021/09/21 03:55:56;;;;;;;6.80;4.95;;;12.80;96.80;;;;;;6300091;22;20000;-80
2021/09/21 03:58:21;;;;;;;7.90;4.72;;;12.90;96.70;;;;;;6299800;22;20038;-80
2021/09/21 04:00:46;;;;;;;6.93;4.65;;;12.90;96.60;;;;;;6299752;22;20066;-79
2021/09/21 04:03:12;;;;;;;6.05;4.72;;;12.80;96.60;;;;;;6300981;22;20302;-79
2021/09/21 04:05:37;;;;;;;6.72;5.20;;;12.80;96.70;;;;;;6299759;22;20003;-78
2021/09/21 04:08:03;;;;;;;8.38;4.97;;;12.80;96.80;;;;;;6302856;22;19999;-79
2021/09/21 04:10:29;;;;;;;7.68;5.50;;;12.80;96.60;;;;;;6303643;22;20002;-79
2021/09/21 04:12:54;;;;;;;8.43;5.57;;;12.80;96.70;;;;;;6302443;22;20121;-80
2021/09/21 04:15:20;;;;;;;7.03;4.93;;;12.80;96.90;;;;;;6300057;22;20078;-78
2021/09/21 04:17:45;;;;;;;6.00;4.47;;;12.80;96.90;;;;;;6299831;22;20693;-79
2021/09/21 04:20:13;;;;;;;5.32;4.28;;;12.90;96.80;;;;;;6300082;22;20313;-79
2021/09/21 04:22:42;;;;;;;8.07;4.20;;;12.90;96.90;;;;;;6300110;22;20291;-79
2021/09/21 04:25:08;;;;;;;6.57;4.75;;;12.90;97.00;;;;;;6300757;22;20003;-79
2021/09/21 04:27:34;;;;;;;10.27;4.50;;;12.90;96.90;;;;;;6301414;22;20489;-79
2021/09/21 04:30:01;;;;;;;5.55;4.25;;;12.90;96.90;;;;;;6298842;22;20011;-79
2021/09/21 04:32:27;;;;;;;6.50;5.07;;;12.90;97.10;;;;;;6300371;22;19995;-79
2021/09/21 04:34:53;;;;;;;12.43;4.85;;;12.90;97.00;;;;;;6300424;22;19999;-79
2021/09/21 04:37:19;;;;;;;7.85;5.05;;;12.90;97.00;;;;;;6302112;22;20414;-78
2021/09/21 04:39:44;;;;;;;5.50;4.13;;;12.90;97.00;;;;;;6302279;22;19995;-78
2021/09/21 04:42:11;;;;;;;6.22;4.93;;;12.90;97.00;;;;;;6301373;22;20014;-78
2021/09/21 04:44:38;;;;;;;7.05;4.20;;;12.90;97.00;;;;;;6272226;22;20414;-77
2021/09/21 04:47:04;;;;;;;7.72;4.95;;;12.80;97.00;;;;;;6300326;22;20004;-79
2021/09/21 04:49:30;;;;;;;5.60;4.15;;;12.80;97.00;;;;;;6270751;22;20082;-78
2021/09/21 04:51:55;;;;;;;6.55;4.13;;;12.80;97.10;;;;;;6300341;22;20035;-78
2021/09/21 04:54:21;;;;;;;6.68;4.55;;;12.80;97.20;;;;;;6299669;22;20074;-79
2021/09/21 04:56:46;;;;;;;7.47;5.03;;;12.80;97.20;;;;;;6299933;22;20625;-78
2021/09/21 04:59:12;;;;;;;6.15;4.75;;;12.80;97.30;;;;;;6270714;22;20007;-79
2021/09/21 05:01:38;;;;;;;10.85;4.45;;;12.80;97.40;;;;;;6271701;22;20089;-78
2021/09/21 05:04:04;;;;;;;6.32;4.70;;;12.80;97.30;;;;;;6299488;22;20321;-77
2021/09/21 05:06:29;;;;;;;6.25;4.38;;;12.80;97.30;;;;;;6298312;22;20469;-79
2021/09/21 05:08:55;;;;;;;6.88;4.55;;;12.80;97.40;;;;;;6301507;22;20005;-80
2021/09/21 05:11:20;;;;;;;8.68;5.13;;;12.80;97.40;;;;;;6300014;22;20013;-78
2021/09/21 05:13:46;;;;;;;7.13;4.47;;;12.80;97.50;;;;;;6271418;22;19999;-78
2021/09/21 05:16:12;;;;;;;8.38;5.13;;;12.80;97.50;;;;;;6272534;22;20056;-79
2021/09/21 05:18:38;;;;;;;8.13;5.63;;;12.80;97.60;;;;;;6300016;22;20468;-79
2021/09/21 05:21:03;;;;;;;7.45;4.60;;;12.80;97.60;;;;;;6293380;22;20000;-78
2021/09/21 05:23:29;;;;;;;7.65;4.40;;;12.80;97.50;;;;;;6295143;22;20006;-80
2021/09/21 05:25:54;;;;;;;6.40;4.45;;;12.80;97.50;;;;;;6294989;22;20546;-78
2021/09/21 05:28:20;;;;;;;8.18;4.65;;;12.70;97.50;;;;;;6293802;22;20014;-79
2021/09/21 05:30:46;;;;;;;8.02;4.55;;;12.70;97.70;;;;;;6297019;22;20003;-78
2021/09/21 05:33:11;;;;;;;8.50;4.32;;;12.70;97.80;;;;;;6296964;22;20348;-79
2021/09/21 05:35:37;;;;;;;7.68;4.32;;;12.70;97.80;;;;;;6298594;22;20049;-79
2021/09/21 05:38:02;;;;;;;8.80;5.05;;;12.70;98.00;;;;;;6301117;22;20326;-79
2021/09/21 05:40:28;;;;;;;5.75;4.18;;;12.80;98.00;;;;;;6301666;22;20038;-80
2021/09/21 05:42:56;;;;;;;7.25;5.30;;;12.80;97.90;;;;;;6298465;22;20007;-78
2021/09/21 05:45:22;;;;;;;6.22;4.43;;;12.80;97.90;;;;;;6296121;22;20729;-78
2021/09/21 05:47:48;;;;;;;7.10;4.30;;;12.80;97.80;;;;;;6295215;22;20092;-81
2021/09/21 05:50:14;;;;;;;7.18;4.15;;;12.80;97.90;;;;;;6300437;22;20429;-80
2021/09/21 05:52:41;;;;;;;10.27;4.88;;;12.90;98.00;;;;;;6299268;22;20007;-80
2021/09/21 05:55:08;;;;;;;6.03;4.20;;;12.90;98.20;;;;;;6299026;22;20053;-80
2021/09/21 05:57:33;;;;;;;8.77;4.40;;;12.90;98.00;;;;;;6297705;22;20011;-79
2021/09/21 05:59:59;;;;;;;9.70;4.32;;;12.90;98.10;;;;;;6298351;22;20003;-81
2021/09/21 06:02:24;;;;;;;5.95;4.90;;;13.00;98.10;;;;;;6299422;22;20035;-80
2021/09/21 06:04:50;;;;;;;7.22;4.88;;;13.10;98.10;;;;;;6300262;22;20022;-80
2021/09/21 06:07:16;;;;;;;5.65;4.78;;;13.10;98.10;;;;;;6300422;22;20007;-80
2021/09/21 06:09:42;;;;;;;5.60;4.47;;;13.20;98.00;;;;;;6272130;22;20060;-78
2021/09/21 06:12:07;;;;;;;7.78;5.10;;;13.20;97.90;;;;;;6299065;22;19999;-79
2021/09/21 06:14:33;;;;;;;9.38;4.70;;;13.20;98.00;;;;;;6300352;22;20348;-78
2021/09/21 06:16:58;;;;;;;5.25;4.40;;;13.30;98.00;;;;;;6300868;22;20007;-79
2021/09/21 06:19:24;;;;;;;10.20;5.22;;;13.30;97.90;;;;;;6298802;22;20360;-80
2021/09/21 06:21:50;;;;;;;5.97;4.72;;;13.30;97.90;;;;;;6299176;22;19999;-79
2021/09/21 06:24:15;;;;;;;8.77;4.55;;;13.40;97.90;;;;;;6300790;22;19995;-78
2021/09/21 06:26:41;;;;;;;8.30;5.03;;;13.40;97.90;;;;;;6299385;22;20019;-81
2021/09/21 06:29:06;;;;;;;7.07;4.88;;;13.40;97.70;;;;;;6299984;22;19996;-79
2021/09/21 06:31:32;;;;;;;8.05;4.80;;;13.40;97.70;;;;;;6298752;22;19999;-79
2021/09/21 06:33:57;;;;;;;10.23;5.18;;;13.50;97.90;;;;;;6272566;22;20003;-79
2021/09/21 06:36:23;;;;;;;7.13;5.10;;;13.50;97.90;;;;;;6298973;22;19995;-79
2021/09/21 06:38:48;;;;;;;4.80;4.22;;;13.50;98.10;;;;;;6299166;22;20472;-81
2021/09/21 06:41:14;;;;;;;8.18;5.05;;;13.60;98.10;;;;;;6298680;22;20045;-79
2021/09/21 06:43:40;;;;;;;7.63;4.63;;;13.60;97.70;;;;;;6299799;22;20030;-79
2021/09/21 06:46:05;;;;;;;7.50;5.00;;;13.70;97.60;;;;;;6299258;22;20584;-80
2021/09/21 06:48:31;;;;;;;7.55;5.38;;;13.70;97.60;;;;;;6299481;22;20003;-80
2021/09/21 06:50:57;;;;;;;8.93;5.47;;;13.70;97.60;;;;;;6299751;22;19999;-79
2021/09/21 06:53:22;;;;;;;7.30;5.03;;;13.70;97.60;;;;;;6299718;22;20413;-79
2021/09/21 06:55:49;;;;;;;9.57;4.82;;;13.70;97.70;;;;;;6300393;22;20015;-80
2021/09/21 06:58:14;;;;;;;6.80;4.50;;;13.60;97.80;;;;;;6291068;22;19999;-79
2021/09/21 07:00:42;;;;;;;12.05;5.10;;;13.70;97.90;;;;;;6294544;22;20033;-80
2021/09/21 07:03:08;;;;;;;6.88;5.10;;;13.60;98.00;;;;;;6297712;22;20014;-79
2021/09/21 07:05:34;;;;;;;7.20;5.25;;;13.70;98.10;;;;;;6297668;22;19999;-79
2021/09/21 07:07:59;;;;;;;9.40;5.05;;;13.70;98.10;;;;;;6273178;22;20487;-80
2021/09/21 07:10:25;;;;;;;8.02;5.15;;;13.70;98.10;;;;;;6298535;22;20037;-80
2021/09/21 07:12:51;;;;;;;7.85;5.72;;;13.80;98.10;;;;;;6300880;22;20068;-79
2021/09/21 07:15:22;;;;;;;7.57;5.05;;;13.80;98.10;;;;;;6300427;22;20003;-79
2021/09/21 07:17:47;;;;;;;7.90;5.32;;;13.90;98.00;;;;;;6300512;22;20045;-81
2021/09/21 07:20:13;;;;;;;11.93;5.68;;;14.00;98.20;;;;;;6299560;22;20430;-80
2021/09/21 07:22:39;;;;;;;9.63;5.13;;;14.00;98.30;;;;;;6300649;22;20006;-79
2021/09/21 07:25:05;;;;;;;8.63;5.63;;;14.10;98.10;;;;;;6300725;22;20000;-79
2021/09/21 07:27:31;;;;;;;9.00;4.93;;;14.20;97.80;;;;;;6301767;22;20015;-80
2021/09/21 07:29:56;;;;;;;8.63;5.15;;;14.20;98.00;;;;;;6300418;22;20033;-79
2021/09/21 07:32:22;;;;;;;9.60;4.75;;;14.20;98.30;;;;;;6301337;22;20045;-79
2021/09/21 07:34:47;;;;;;;11.60;5.20;;;14.30;97.90;;;;;;6301973;22;20007;-79
2021/09/21 07:37:13;;;;;;;7.57;5.43;;;14.30;97.80;;;;;;6300637;22;20003;-79
2021/09/21 07:39:39;;;;;;;9.55;5.45;;;14.40;98.00;;;;;;6299061;22;19999;-79
2021/09/21 07:42:04;;;;;;;6.40;4.28;;;14.40;97.90;;;;;;6300012;22;20004;-79
2021/09/21 07:44:30;;;;;;;10.05;4.75;;;14.50;97.90;;;;;;6302147;22;19999;-78
2021/09/21 07:46:57;;;;;;;13.35;4.43;;;14.60;97.60;;;;;;6301043;22;20014;-78
2021/09/21 07:49:24;;;;;;;6.60;4.82;;;14.60;97.50;;;;;;6301818;22;20018;-79
2021/09/21 07:51:50;;;;;;;7.30;4.40;;;14.70;97.60;;;;;;6301564;22;20003;-78
2021/09/21 07:54:15;;;;;;;5.28;4.22;;;14.70;97.40;;;;;;6302091;22;20002;-80
2021/09/21 07:56:41;;;;;;;6.78;4.30;;;14.70;97.40;;;;;;6301567;22;20321;-80
2021/09/21 07:59:07;;;;;;;5.30;4.43;;;14.90;97.00;;;;;;6300403;22;20437;-79
2021/09/21 08:01:33;;;;;;;8.85;4.75;;;14.90;97.30;;;;;;6301031;22;20068;-79
2021/09/21 08:03:58;;;;;;;7.00;4.75;;;14.90;96.90;;;;;;6302406;22;20003;-79
2021/09/21 08:06:24;;;;;;;8.32;4.50;;;14.90;96.90;;;;;;6300727;22;20428;-78
2021/09/21 08:08:51;;;;;;;6.38;4.63;;;15.00;96.90;;;;;;6273436;22;20074;-79
2021/09/21 08:11:16;;;;;;;8.68;4.45;;;15.10;96.90;;;;;;6301353;22;20003;-79
2021/09/21 08:13:42;;;;;;;6.40;4.35;;;15.10;96.30;;;;;;6301370;22;20004;-78
2021/09/21 08:16:08;;;;;;;4.55;3.75;;;15.20;96.50;;;;;;6300703;22;20003;-79
2021/09/21 08:18:33;;;;;;;7.28;4.93;;;15.20;96.00;;;;;;6300475;22;20502;-79
2021/09/21 08:20:59;;;;;;;6.68;5.05;;;15.30;96.10;;;;;;6301059;22;20003;-80
2021/09/21 08:23:25;;;;;;;6.32;4.72;;;15.30;96.00;;;;;;6301824;22;19995;-80
2021/09/21 08:25:51;;;;;;;11.73;5.13;;;15.30;96.30;;;;;;6300435;22;20444;-79
2021/09/21 08:28:17;;;;;;;7.05;4.90;;;15.30;96.20;;;;;;6300128;22;20003;-80
2021/09/21 08:30:42;;;;;;;12.95;4.90;;;15.40;96.30;;;;;;6301458;22;20030;-81
2021/09/21 08:33:09;;;;;;;9.05;4.63;;;15.30;95.90;;;;;;6301476;22;20110;-81
2021/09/21 08:35:35;;;;;;;11.48;5.47;;;15.40;95.50;;;;;;6301002;22;20003;-80
2021/09/21 08:38:01;;;;;;;7.72;4.90;;;15.40;95.90;;;;;;6300072;22;20026;-81
2021/09/21 08:40:27;;;;;;;5.68;4.85;;;15.40;95.80;;;;;;6299339;22;20010;-80
2021/09/21 08:42:53;;;;;;;6.63;4.75;;;15.40;95.60;;;;;;6301880;22;20025;-81
2021/09/21 08:45:18;;;;;;;7.07;4.10;;;15.40;95.70;;;;;;6302959;22;20078;-79
2021/09/21 08:47:44;;;;;;;8.05;4.43;;;15.40;95.50;;;;;;6301857;22;20525;-80
2021/09/21 08:50:11;;;;;;;6.80;4.25;;;15.50;95.60;;;;;;6303369;22;20003;-79
2021/09/21 08:52:40;;;;;;;6.97;4.90;;;15.50;95.50;;;;;;6302540;22;20074;-79
2021/09/21 08:55:08;;;;;;;9.90;4.20;;;15.60;95.90;;;;;;6302367;22;20086;-79
2021/09/21 08:57:34;;;;;;;5.68;4.32;;;15.70;95.00;;;;;;6301513;22;20010;-81
2021/09/21 09:00:00;;;;;;;5.85;3.92;;;15.80;95.20;;;;;;6302725;22;19999;-81
2021/09/21 09:02:25;;;;;;;4.97;3.60;;;15.80;94.80;;;;;;6302819;22;20002;-80
2021/09/21 09:05:09;;;;;;;4.70;3.72;;;15.80;94.90;;;;;;6302635;22;20003;-79
2021/09/21 09:07:56;;;;;;;5.55;3.47;;;15.90;94.80;;;;;;6302486;22;20325;-81
2021/09/21 09:10:23;;;;;;;4.47;4.00;;;15.90;94.60;;;;;;6303020;22;20045;-80
2021/09/21 09:12:50;;;;;;;5.55;3.97;;;15.90;94.40;;;;;;6301339;22;20066;-80
2021/09/21 09:15:21;;;;;;;4.95;3.60;;;15.90;94.50;;;;;;6304241;22;19996;-81
2021/09/21 09:17:59;;;;;;;4.80;4.00;;;15.90;94.50;;;;;;6302865;22;20010;-80
2021/09/21 09:20:35;;;;;;;7.07;3.83;;;16.00;94.60;;;;;;6275707;22;20078;-80
2021/09/21 09:23:01;;;;;;;4.85;3.42;;;16.00;94.40;;;;;;6302993;22;19999;-80
2021/09/21 09:25:27;;;;;;;5.53;3.35;;;16.00;94.30;;;;;;6303264;22;19999;-78
2021/09/21 09:27:52;;;;;;;4.38;3.47;;;16.10;93.50;;;;;;6302405;22;20011;-79
2021/09/21 09:30:22;;;;;;;3.63;3.08;;;16.20;93.40;;;;;;6303484;22;20003;-79
2021/09/21 09:33:03;;;;;;;6.50;3.00;;;16.30;93.10;;;;;;6301851;22;20086;-79
2021/09/21 09:35:31;;;;;;;4.60;2.80;;;16.50;92.90;;;;;;6276662;22;20007;-78
2021/09/21 09:37:59;;;;;;;4.05;2.70;;;16.60;93.20;;;;;;6274692;22;20038;-78
2021/09/21 09:40:26;;;;;;;3.25;2.65;;;16.80;91.80;;;;;;6303110;22;20025;-78
2021/09/21 09:42:52;;;;;;;3.83;2.85;;;16.90;91.80;;;;;;6303185;22;20432;-77
2021/09/21 09:45:33;;;;;;;2.80;2.58;;;17.00;92.00;;;;;;6302637;22;20372;-78
2021/09/21 09:47:59;;;;;;;3.28;2.35;;;17.10;90.80;;;;;;6302676;22;20098;-80
2021/09/21 09:50:33;;;;;;;5.95;2.80;;;17.30;91.20;;;;;;6303195;22;19996;-79
2021/09/21 09:53:06;;;;;;;13.05;4.10;;;17.30;90.90;;;;;;6301568;22;20007;-79
2021/09/21 09:55:33;;;;;;;13.05;4.43;;;17.30;91.30;;;;;;6303688;22;19995;-79
2021/09/21 09:58:00;;;;;;;14.75;4.07;;;17.30;91.30;;;;;;6301729;22;20009;-80
2021/09/21 10:00:26;;;;;;;11.60;3.03;;;17.40;91.00;;;;;;6302939;22;20006;-79
2021/09/21 10:02:53;;;;;;;4.15;2.88;;;17.50;90.90;;;;;;6302762;22;19999;-79
2021/09/21 10:05:19;;;;;;;3.03;2.47;;;17.40;90.80;;;;;;6301652;22;19999;-80
2021/09/21 10:07:45;;;;;;;11.25;4.28;;;17.40;91.10;;;;;;6274417;22;20377;-79
2021/09/21 10:10:11;;;;;;;4.55;2.72;;;17.50;90.80;;;;;;6302477;22;20006;-79
2021/09/21 10:12:37;;;;;;;5.28;2.80;;;17.40;90.40;;;;;;6301496;22;20382;-80
2021/09/21 10:15:05;;;;;;;3.50;2.10;;;17.40;90.40;;;;;;6302491;22;20004;-79
2021/09/21 10:17:33;;;;;;;4.53;2.78;;;17.40;88.40;;;;;;6301893;22;20003;-79
2021/09/21 10:19:59;;;;;;;2.15;1.65;;;17.40;88.90;;;;;;6301410;22;20030;-80
2021/09/21 10:22:29;;;;;;;2.95;2.50;;;17.40;88.70;;;;;;6302426;22;20466;-79
2021/09/21 10:25:01;;;;;;;4.05;2.38;;;17.40;90.50;;;;;;6302724;22;19999;-79
2021/09/21 10:27:27;;;;;;;;;;;17.40;90.30;;;;;;6302372;22;20027;-78
2021/09/21 10:30:01;;;;;;;2.85;1.63;;;17.40;88.40;;;;;;6300795;22;20275;-79
2021/09/21 10:32:27;;;;;;;2.47;1.48;;;17.50;87.60;;;;;;6301604;22;19995;-80
2021/09/21 10:34:53;;;;;;;3.00;2.10;;;17.50;89.00;;;;;;6302570;22;20022;-79
2021/09/21 10:37:20;;;;;;;3.83;2.55;;;17.50;89.00;;;;;;6300879;22;20034;-80
2021/09/21 10:39:46;;;;;;;2.80;2.13;;;17.60;87.60;;;;;;6299341;22;19999;-78
2021/09/21 10:42:13;;;;;;;2.78;1.90;;;17.60;86.90;;;;;;6274393;22;20004;-80
2021/09/21 10:44:55;;;;;;;3.35;2.20;;;17.50;87.10;;;;;;6300778;22;20060;-80
2021/09/21 10:47:24;;;;;;;4.03;1.63;;;17.50;88.30;;;;;;6301573;22;20007;-80
2021/09/21 10:49:49;;;;;;;3.08;1.83;;;17.50;87.70;;;;;;6302107;22;19995;-78
2021/09/21 10:52:17;;;;;;;2.28;2.00;;;17.40;88.00;;;;;;6274996;22;20073;-79
2021/09/21 10:54:51;;;;;;;3.63;1.90;;;17.40;88.50;;;;;;6302723;22;20087;-78
2021/09/21 10:57:34;;;;;;;3.08;1.42;;;17.30;89.20;;;;;;6302819;22;20031;-80
2021/09/21 11:00:00;;;;;;;;;;;17.30;88.60;;;;;;6302644;22;20007;-79
2021/09/21 11:02:30;;;;;;;2.13;1.90;;;17.20;88.40;;;;;;6275509;22;19980;-79
2021/09/21 11:04:59;;;;;;;3.88;2.45;;;17.20;88.00;;;;;;6274166;22;20306;-80
2021/09/21 11:07:25;;;;;;;5.60;2.45;;;17.10;87.50;;;;;;6274509;22;20014;-81
2021/09/21 11:09:54;;;;;;;1.77;1.60;;;17.10;88.10;;;;;;6301816;22;20004;-80
2021/09/21 11:12:22;;;;;;;3.63;2.25;;;17.10;88.60;;;;;;6302591;22;19999;-80
2021/09/21 11:14:49;;;;;;;4.13;2.15;;;17.00;89.40;;;;;;6302075;22;19995;-79
2021/09/21 11:17:14;;;;;;;4.32;2.72;;;17.00;90.20;;;;;;6302828;22;20013;-79
2021/09/21 11:19:41;;;;;;;3.78;2.75;;;17.00;90.60;;;;;;6301559;22;20027;-79
2021/09/21 11:22:10;;;;;;;5.45;2.90;;;17.10;90.10;;;;;;6274518;22;20007;-79
2021/09/21 11:24:37;;;;;;;5.22;2.22;;;17.10;90.20;;;;;;6302279;22;20007;-78
2021/09/21 11:27:05;;;;;;;5.68;3.20;;;17.10;90.50;;;;;;6301486;22;20011;-80
2021/09/21 11:29:31;;;;;;;7.93;2.78;;;17.10;89.80;;;;;;6301358;22;20418;-78
2021/09/21 11:31:57;;;;;;;4.43;2.75;;;17.10;90.00;;;;;;6301697;22;20365;-80
2021/09/21 11:34:29;;;;;;;5.35;3.22;;;17.10;90.50;;;;;;6301832;22;20421;-80
2021/09/21 11:37:00;;;;;;;8.10;2.72;;;17.10;90.30;;;;;;6301818;22;20050;-80
2021/09/21 11:39:30;;;;;;;6.93;3.13;;;17.20;90.50;;;;;;6301670;22;20008;-80
2021/09/21 11:41:56;;;;;;;3.38;2.42;;;17.20;90.00;;;;;;6272864;22;20000;-79
2021/09/21 11:44:21;;;;;;;3.72;2.55;;;17.30;89.00;;;;;;6302335;22;20132;-80
2021/09/21 11:46:56;;;;;;;6.57;2.53;;;17.30;90.20;;;;;;6302443;22;20051;-80
2021/09/21 11:49:22;;;;;;;3.55;2.45;;;17.40;87.40;;;;;;6300706;22;20434;-79
2021/09/21 11:51:49;;;;;;;3.03;2.20;;;17.50;87.40;;;;;;6301869;22;20074;-80
2021/09/21 11:54:15;;;;;;;5.00;2.42;;;17.50;87.60;;;;;;6302159;22;20422;-79
2021/09/21 11:56:42;;;;;;;2.92;2.05;;;17.50;88.70;;;;;;6300659;22;20021;-80
2021/09/21 11:59:08;;;;;;;4.22;2.92;;;17.70;88.80;;;;;;6300048;22;19999;-79
2021/09/21 12:01:33;;;;;;;5.18;2.58;;;17.90;87.80;;;;;;6273637;22;20006;-79
2021/09/21 12:03:59;;;;;;;4.32;2.63;;;18.00;89.50;;;;;;6301339;22;20307;-79
2021/09/21 12:06:36;;;;;;;3.72;2.55;;;18.20;85.80;;;;;;6302624;22;20039;-79
2021/09/21 12:09:04;;;;;;;4.28;2.75;;;18.30;83.80;;;;;;6299679;22;19999;-80
2021/09/21 12:11:33;;;;;;;3.15;2.15;;;18.30;84.40;;;;;;6301273;22;20002;-78
2021/09/21 12:13:58;;;;;;;5.10;2.78;;;18.40;83.90;;;;;;6301901;22;20415;-79
2021/09/21 12:16:27;;;;;;;5.55;2.95;;;18.50;84.00;;;;;;6301845;22;20022;-80
2021/09/21 12:18:53;;;;;;;4.95;2.75;;;18.50;83.40;;;;;;6303111;22;20013;-79
2021/09/21 12:21:18;;;;;;;3.17;2.42;;;18.50;85.30;;;;;;6303808;22;20011;-78
2021/09/21 12:23:46;;;;;;;2.90;2.58;;;18.60;85.50;;;;;;6303004;22;19995;-79
2021/09/21 12:26:15;;;;;;;4.07;2.50;;;18.60;85.80;;;;;;6303680;22;20054;-79
2021/09/21 12:28:44;;;;;;;3.90;2.53;;;18.70;84.80;;;;;;6302611;22;20375;-80
2021/09/21 12:31:20;;;;;;;6.13;3.00;;;18.90;83.50;;;;;;6303339;22;20418;-78
2021/09/21 12:33:47;;;;;;;5.00;2.65;;;18.90;83.90;;;;;;6303986;22;20078;-78
2021/09/21 12:36:27;;;;;;;3.63;2.15;;;19.00;82.70;;;;;;6304144;22;20034;-80
2021/09/21 12:38:56;;;;;;;6.55;2.40;;;19.00;82.50;;;;;;6275431;22;20011;-79
2021/09/21 12:41:22;;;;;;;4.40;2.50;;;19.10;83.40;;;;;;6303349;22;20003;-79
2021/09/21 12:43:53;;;;;;;3.40;2.75;;;19.20;80.80;;;;;;6302661;22;20550;-78
2021/09/21 12:46:19;;;;;;;4.65;2.28;;;19.30;82.20;;;;;;6304075;22;20007;-78
2021/09/21 12:48:45;;;;;;;5.22;2.20;;;19.30;82.20;;;;;;6302429;22;20487;-78
2021/09/21 12:51:11;;;;;;;4.35;2.42;;;19.40;80.70;;;;;;6303295;22;20410;-81
2021/09/21 12:53:37;;;;;;;3.53;1.85;;;19.40;81.00;;;;;;6303711;22;19999;-79
2021/09/21 12:56:11;;;;;;;4.72;2.33;;;19.50;79.20;;;;;;6303240;22;20326;-80